Time;durP1;ratioP1;P1;durP2;ratioP2;P2;SDS_P1;SDS_P2;PMS_P1;PMS_P2;Temp;Humidity;BMP_temperature;BMP_pressure;BME280_temperature;BME280_humidity;BME280_pressure;Samples;Min_cycle;Max_cycle;Signal;HPM_P1;HPM_P2
2022/01/11 00:00:43;;;;;;;27.90;20.50;;;5.20;99.90;;;;;;4994132;28;20400;-59
2022/01/11 00:03:10;;;;;;;25.60;17.90;;;5.30;99.90;;;;;;4995437;28;20392;-59
2022/01/11 00:05:42;;;;;;;31.20;21.10;;;5.30;99.90;;;;;;4995422;28;20496;-60
2022/01/11 00:08:10;;;;;;;26.00;19.07;;;5.30;99.90;;;;;;4995070;28;20907;-59
2022/01/11 00:10:47;;;;;;;31.63;22.07;;;5.20;99.90;;;;;;4993858;28;20404;-59
2022/01/11 00:13:15;;;;;;;26.70;19.93;;;5.30;99.90;;;;;;4994617;28;20391;-59
2022/01/11 00:15:40;;;;;;;34.30;20.10;;;5.40;99.90;;;;;;4994241;28;20440;-60
2022/01/11 00:18:06;;;;;;;29.40;22.80;;;5.30;99.90;;;;;;4994011;28;20483;-61
2022/01/11 00:20:32;;;;;;;24.90;17.73;;;5.30;99.90;;;;;;4994024;28;20177;-59
2022/01/11 00:25:27;;;;;;;23.77;19.23;;;5.30;99.90;;;;;;4993254;28;20164;-60
2022/01/11 00:27:53;;;;;;;30.80;19.50;;;5.40;99.90;;;;;;4993448;28;20780;-59
2022/01/11 00:30:20;;;;;;;27.53;19.30;;;5.40;99.90;;;;;;4993981;28;20403;-60
2022/01/11 00:32:50;;;;;;;29.77;21.17;;;5.40;99.90;;;;;;4993925;28;20199;-58
2022/01/11 00:35:17;;;;;;;28.50;18.97;;;5.40;99.90;;;;;;4993989;28;20415;-57
2022/01/11 00:37:44;;;;;;;32.77;24.53;;;5.30;99.90;;;;;;4993900;28;20447;-61
2022/01/11 00:40:11;;;;;;;29.73;21.37;;;5.30;99.90;;;;;;4993623;28;20404;-59
2022/01/11 00:42:37;;;;;;;32.10;21.40;;;5.20;99.90;;;;;;4993569;28;20785;-60
2022/01/11 00:45:05;;;;;;;27.73;19.30;;;5.20;99.90;;;;;;4993810;28;20434;-58
2022/01/11 00:47:31;;;;;;;32.70;18.73;;;5.30;99.90;;;;;;4983634;28;20425;-60
2022/01/11 00:49:56;;;;;;;29.10;20.67;;;5.40;99.90;;;;;;4973977;28;20415;-60
2022/01/11 00:52:22;;;;;;;29.47;20.37;;;5.30;99.90;;;;;;4974281;28;20197;-60
2022/01/11 00:54:48;;;;;;;27.97;21.87;;;5.20;99.90;;;;;;4974326;28;20257;-61
2022/01/11 00:57:13;;;;;;;32.57;19.60;;;5.30;99.90;;;;;;4973311;28;20632;-59
2022/01/11 00:59:39;;;;;;;28.20;20.90;;;5.30;99.90;;;;;;4993798;28;20204;-60
2022/01/11 01:02:05;;;;;;;29.03;20.00;;;5.30;99.90;;;;;;4994164;28;20215;-59
2022/01/11 01:04:31;;;;;;;38.90;25.20;;;5.30;99.90;;;;;;4998289;28;20626;-61
2022/01/11 01:06:56;;;;;;;29.63;20.07;;;5.20;99.90;;;;;;4997947;28;20168;-59
2022/01/11 01:09:24;;;;;;;29.20;19.30;;;5.20;99.90;;;;;;4998374;28;20259;-60
2022/01/11 01:11:51;;;;;;;31.17;22.33;;;5.20;99.90;;;;;;4997826;28;20192;-60
2022/01/11 01:14:16;;;;;;;27.00;21.10;;;5.20;99.90;;;;;;4997634;28;20755;-60
2022/01/11 01:16:42;;;;;;;34.73;23.90;;;5.20;99.90;;;;;;4979315;28;20505;-60
2022/01/11 01:19:08;;;;;;;27.77;20.97;;;5.20;99.90;;;;;;4997204;28;20713;-59
2022/01/11 01:21:37;;;;;;;28.73;19.90;;;5.20;99.90;;;;;;4997559;28;20191;-59
2022/01/11 01:24:09;;;;;;;34.27;20.57;;;5.30;99.90;;;;;;4997421;28;20183;-60
2022/01/11 01:26:35;;;;;;;33.60;22.00;;;5.40;99.90;;;;;;4997226;28;20414;-60
2022/01/11 01:29:01;;;;;;;26.13;20.60;;;5.30;99.90;;;;;;4996830;28;20412;-60
2022/01/11 01:31:28;;;;;;;28.90;22.50;;;5.20;99.90;;;;;;4978867;28;20197;-60
2022/01/11 01:33:54;;;;;;;34.80;24.50;;;5.20;99.90;;;;;;4997159;28;20400;-59
2022/01/11 01:36:21;;;;;;;33.10;23.33;;;5.10;99.90;;;;;;4996810;28;20989;-58
2022/01/11 01:38:47;;;;;;;29.47;21.30;;;5.10;99.90;;;;;;4997078;28;20746;-58
2022/01/11 01:41:16;;;;;;;34.87;22.50;;;5.10;99.90;;;;;;4979081;28;20434;-59
2022/01/11 01:43:44;;;;;;;30.60;23.40;;;5.10;99.90;;;;;;4996983;28;20203;-59
2022/01/11 01:46:10;;;;;;;31.33;23.10;;;5.10;99.90;;;;;;4996492;28;20407;-58
2022/01/11 01:48:36;;;;;;;31.37;22.97;;;5.20;99.90;;;;;;4995729;28;20435;-58
2022/01/11 01:51:04;;;;;;;32.20;24.50;;;5.30;99.90;;;;;;4996446;28;20422;-60
2022/01/11 01:53:29;;;;;;;39.37;25.43;;;5.30;99.90;;;;;;4995780;28;20169;-59
2022/01/11 01:55:55;;;;;;;29.57;24.67;;;5.40;99.90;;;;;;4957932;29;20747;-60
2022/01/11 01:58:22;;;;;;;33.23;25.33;;;5.40;99.90;;;;;;4957738;29;20500;-60
2022/01/11 02:00:54;;;;;;;32.30;25.03;;;5.40;99.90;;;;;;4957486;28;20619;-60
2022/01/11 02:03:26;;;;;;;28.77;22.30;;;5.40;99.90;;;;;;4957420;29;20412;-58
2022/01/11 02:05:54;;;;;;;40.57;24.43;;;5.40;99.90;;;;;;4957790;29;20401;-60
2022/01/11 02:08:20;;;;;;;25.57;20.60;;;5.30;99.90;;;;;;4990920;28;20466;-60
2022/01/11 02:10:45;;;;;;;28.67;22.10;;;5.30;99.90;;;;;;4948763;28;20485;-61
2022/01/11 02:13:11;;;;;;;34.00;23.60;;;5.30;99.90;;;;;;4983779;28;20227;-60
2022/01/11 02:15:37;;;;;;;29.20;22.60;;;5.40;99.90;;;;;;4996269;28;20807;-60
2022/01/11 02:18:24;;;;;;;34.67;24.60;;;5.50;99.90;;;;;;4995907;28;20570;-60
2022/01/11 02:20:51;;;;;;;30.23;23.60;;;5.60;99.90;;;;;;4996141;28;20459;-60
2022/01/11 02:23:19;;;;;;;28.87;21.80;;;5.50;99.90;;;;;;4996133;28;20400;-60
2022/01/11 02:25:46;;;;;;;31.80;23.30;;;5.50;99.90;;;;;;4996147;28;20408;-61
2022/01/11 02:28:14;;;;;;;29.10;21.63;;;5.50;99.90;;;;;;4995819;28;20795;-58
2022/01/11 02:30:41;;;;;;;29.43;20.40;;;5.50;99.90;;;;;;4995690;28;20411;-61
2022/01/11 02:33:15;;;;;;;38.13;24.50;;;5.50;99.90;;;;;;4995577;28;20856;-61
2022/01/11 02:35:47;;;;;;;32.10;22.20;;;5.30;99.90;;;;;;4996471;28;20418;-59
2022/01/11 02:38:13;;;;;;;27.73;21.70;;;5.30;99.90;;;;;;4995528;28;21019;-60
2022/01/11 02:40:39;;;;;;;25.93;19.27;;;5.30;99.90;;;;;;4995569;28;20442;-58
2022/01/11 02:43:06;;;;;;;29.23;23.23;;;5.30;99.90;;;;;;4995426;28;20642;-58
2022/01/11 02:45:31;;;;;;;34.77;21.40;;;5.20;99.90;;;;;;4995494;28;20217;-58
2022/01/11 02:47:57;;;;;;;36.93;26.10;;;5.20;99.90;;;;;;4978533;28;20921;-60
2022/01/11 02:50:24;;;;;;;26.50;20.60;;;5.30;99.90;;;;;;4975943;28;20173;-59
2022/01/11 02:52:50;;;;;;;33.57;23.70;;;5.30;99.90;;;;;;4975786;28;20189;-60
2022/01/11 02:55:16;;;;;;;30.63;22.90;;;5.30;99.90;;;;;;4975811;28;20972;-56
2022/01/11 02:57:42;;;;;;;31.40;23.23;;;5.20;99.90;;;;;;4975979;28;20201;-57
2022/01/11 03:00:11;;;;;;;31.53;22.60;;;5.10;99.90;;;;;;4975999;28;20491;-57
2022/01/11 03:02:37;;;;;;;32.70;24.30;;;5.10;99.90;;;;;;4975482;28;20476;-60
2022/01/11 03:05:05;;;;;;;30.70;22.93;;;5.00;99.90;;;;;;4958797;28;20419;-59
2022/01/11 03:07:31;;;;;;;28.50;20.20;;;4.90;99.90;;;;;;4976965;28;20173;-59
2022/01/11 03:10:06;;;;;;;30.77;23.97;;;4.90;99.90;;;;;;4976201;28;20471;-59
2022/01/11 03:12:32;;;;;;;28.03;22.90;;;5.00;99.90;;;;;;4977977;28;20466;-60
2022/01/11 03:14:58;;;;;;;28.83;21.90;;;5.00;99.90;;;;;;4995244;28;20450;-60
2022/01/11 03:17:25;;;;;;;26.80;21.77;;;5.00;99.90;;;;;;4994572;28;20458;-59
2022/01/11 03:19:52;;;;;;;32.73;21.80;;;4.90;99.90;;;;;;4995129;28;20841;-60
2022/01/11 03:22:17;;;;;;;32.70;25.10;;;4.90;99.90;;;;;;4994914;28;20427;-57
2022/01/11 03:24:44;;;;;;;39.57;25.77;;;5.00;99.90;;;;;;4994267;28;20466;-58
2022/01/11 03:27:10;;;;;;;27.50;22.13;;;5.00;99.90;;;;;;4994748;28;20173;-58
2022/01/11 03:29:37;;;;;;;30.77;21.67;;;5.00;99.90;;;;;;4994795;28;20498;-58
2022/01/11 03:32:04;;;;;;;34.80;24.97;;;5.00;99.90;;;;;;4994861;28;20529;-59
2022/01/11 03:34:30;;;;;;;35.50;22.90;;;5.00;99.90;;;;;;4995029;28;20530;-58
2022/01/11 03:36:57;;;;;;;35.33;26.90;;;4.90;99.90;;;;;;4994992;28;20810;-60
2022/01/11 03:39:24;;;;;;;32.80;25.93;;;4.90;99.90;;;;;;4994546;28;20479;-60
2022/01/11 03:41:49;;;;;;;38.20;25.83;;;5.00;99.90;;;;;;4994453;28;20554;-60
2022/01/11 03:44:15;;;;;;;34.97;25.10;;;5.00;99.90;;;;;;4994787;28;20847;-59
2022/01/11 03:46:41;;;;;;;39.47;25.63;;;5.00;99.90;;;;;;4993322;28;20566;-60
2022/01/11 03:49:06;;;;;;;34.80;25.53;;;4.90;99.90;;;;;;4994362;28;20173;-59
2022/01/11 03:51:35;;;;;;;43.50;27.97;;;4.90;99.90;;;;;;4994302;28;20204;-59
2022/01/11 03:54:09;;;;;;;38.37;25.50;;;4.90;99.90;;;;;;4994208;28;20187;-59
2022/01/11 03:56:35;;;;;;;39.73;27.67;;;4.90;99.90;;;;;;4994525;28;20487;-60
2022/01/11 03:59:06;;;;;;;41.83;28.43;;;4.90;99.90;;;;;;4994098;28;20419;-60
2022/01/11 04:01:32;;;;;;;36.00;25.97;;;4.90;99.90;;;;;;4993973;28;20456;-59
2022/01/11 04:03:58;;;;;;;35.33;27.47;;;5.00;99.90;;;;;;4994095;28;20881;-59
2022/01/11 04:06:25;;;;;;;36.47;24.63;;;5.00;99.90;;;;;;4994347;28;20450;-60
2022/01/11 04:08:52;;;;;;;40.53;26.47;;;5.00;99.90;;;;;;4995104;28;20262;-60
2022/01/11 04:11:17;;;;;;;41.37;26.00;;;4.90;99.90;;;;;;4994156;28;20432;-60
2022/01/11 04:13:43;;;;;;;40.33;28.03;;;5.00;99.90;;;;;;4994150;28;20410;-60
2022/01/11 04:16:09;;;;;;;37.73;26.43;;;4.90;99.90;;;;;;4993100;28;20717;-60
2022/01/11 04:18:34;;;;;;;36.70;25.27;;;5.00;99.90;;;;;;4993573;28;20254;-60
2022/01/11 04:21:00;;;;;;;38.53;24.97;;;5.00;99.90;;;;;;4993953;28;20424;-60
2022/01/11 04:23:27;;;;;;;30.97;22.30;;;5.10;99.90;;;;;;4994032;28;20626;-60
2022/01/11 04:25:52;;;;;;;47.00;27.30;;;5.10;99.90;;;;;;4993681;28;20207;-58
2022/01/11 04:28:18;;;;;;;38.30;25.60;;;5.00;99.90;;;;;;4976258;28;20438;-60
2022/01/11 04:30:44;;;;;;;45.57;26.03;;;4.90;99.90;;;;;;4992599;28;20245;-60
2022/01/11 04:33:10;;;;;;;44.47;29.17;;;4.90;99.90;;;;;;4993316;28;20200;-59
2022/01/11 04:35:35;;;;;;;42.67;27.10;;;4.90;99.90;;;;;;4993695;28;20621;-60
2022/01/11 04:38:01;;;;;;;42.77;28.70;;;4.90;99.90;;;;;;4974805;28;20482;-59
2022/01/11 04:40:26;;;;;;;39.53;26.13;;;4.80;99.90;;;;;;4993584;28;20620;-62
2022/01/11 04:42:52;;;;;;;36.80;24.93;;;4.80;99.90;;;;;;4993526;28;20169;-60
2022/01/11 04:45:18;;;;;;;37.33;27.53;;;4.80;99.90;;;;;;4993820;28;20629;-61
2022/01/11 04:47:45;;;;;;;36.10;26.50;;;4.70;99.90;;;;;;4980858;28;20260;-61
2022/01/11 04:50:12;;;;;;;38.27;25.30;;;4.80;99.90;;;;;;4989414;28;20191;-61
2022/01/11 04:52:37;;;;;;;33.73;23.03;;;4.90;99.90;;;;;;4993581;28;20579;-61
2022/01/11 04:55:04;;;;;;;34.83;23.83;;;4.90;99.90;;;;;;4993739;28;20499;-61
2022/01/11 04:57:30;;;;;;;38.23;25.43;;;4.90;99.90;;;;;;4992500;28;20208;-59
2022/01/11 04:59:56;;;;;;;34.03;24.17;;;5.00;99.90;;;;;;4993781;28;20577;-60
2022/01/11 05:02:22;;;;;;;33.63;23.53;;;5.00;99.90;;;;;;5005793;23;20239;-56
2022/01/11 05:04:48;;;;;;;35.03;25.37;;;5.00;99.90;;;;;;4985024;28;20176;-58
2022/01/11 05:07:13;;;;;;;34.03;23.67;;;5.00;99.90;;;;;;4992408;28;20416;-58
2022/01/11 05:09:39;;;;;;;33.97;24.50;;;5.10;99.90;;;;;;4993350;28;20219;-58
2022/01/11 05:12:05;;;;;;;31.87;24.13;;;5.20;99.90;;;;;;4991728;28;20228;-56
2022/01/11 05:14:31;;;;;;;30.93;24.03;;;5.10;99.90;;;;;;4992967;28;20223;-53
2022/01/11 05:16:56;;;;;;;31.20;22.50;;;5.20;99.90;;;;;;4993870;28;20443;-54
2022/01/11 05:19:22;;;;;;;29.47;24.07;;;5.20;99.90;;;;;;4993645;28;20234;-58
2022/01/11 05:21:47;;;;;;;30.97;24.47;;;5.20;99.90;;;;;;4993248;28;20192;-59
2022/01/11 05:24:13;;;;;;;31.00;22.07;;;5.10;99.90;;;;;;4993384;28;20176;-56
2022/01/11 05:26:39;;;;;;;38.70;23.93;;;5.10;99.90;;;;;;4992780;28;20176;-58
2022/01/11 05:29:05;;;;;;;36.50;24.70;;;5.20;99.90;;;;;;4990980;28;20165;-59
2022/01/11 05:31:34;;;;;;;29.83;22.27;;;5.30;99.90;;;;;;4983952;28;20798;-59
2022/01/11 05:33:59;;;;;;;31.90;24.23;;;5.30;99.90;;;;;;4983820;28;20411;-58
2022/01/11 05:36:25;;;;;;;35.10;25.73;;;5.40;99.90;;;;;;4983502;28;20430;-59
2022/01/11 05:38:51;;;;;;;34.40;23.60;;;5.30;99.90;;;;;;4984165;28;20555;-58
2022/01/11 05:41:16;;;;;;;34.63;23.17;;;5.20;99.90;;;;;;4990166;28;20172;-57
2022/01/11 05:43:42;;;;;;;32.10;22.83;;;5.10;99.90;;;;;;4993166;28;20179;-58
2022/01/11 05:46:08;;;;;;;36.43;25.00;;;5.20;99.90;;;;;;4993156;28;20173;-57
2022/01/11 05:48:33;;;;;;;34.77;23.60;;;5.30;99.90;;;;;;4976873;28;20176;-56
2022/01/11 05:51:00;;;;;;;32.00;21.57;;;5.20;99.90;;;;;;4996146;28;20177;-59
2022/01/11 05:53:26;;;;;;;28.87;22.00;;;5.30;99.90;;;;;;4996444;28;20291;-58
2022/01/11 05:55:52;;;;;;;32.57;23.10;;;5.30;99.90;;;;;;4995331;28;20415;-58
2022/01/11 05:58:17;;;;;;;35.13;24.77;;;5.20;99.90;;;;;;4996348;28;20846;-57
2022/01/11 06:00:43;;;;;;;30.47;23.03;;;5.20;99.90;;;;;;4996397;28;20211;-58
2022/01/11 06:03:09;;;;;;;32.23;23.73;;;5.20;99.90;;;;;;4996177;28;20200;-58
2022/01/11 06:05:38;;;;;;;31.30;22.70;;;5.30;99.90;;;;;;4995544;28;20181;-59
2022/01/11 06:08:06;;;;;;;26.60;20.80;;;5.30;99.90;;;;;;4996491;28;20685;-57
2022/01/11 06:10:32;;;;;;;40.43;28.37;;;5.30;99.90;;;;;;4995891;28;20408;-58
2022/01/11 06:12:57;;;;;;;37.73;26.50;;;5.40;99.90;;;;;;4996121;28;20801;-59
2022/01/11 06:15:23;;;;;;;29.87;22.40;;;5.30;99.90;;;;;;4995399;28;20419;-59
2022/01/11 06:17:49;;;;;;;34.00;24.00;;;5.30;99.90;;;;;;4996617;28;20229;-59
2022/01/11 06:20:15;;;;;;;43.37;29.60;;;5.30;99.90;;;;;;4996095;28;20564;-59
2022/01/11 06:22:41;;;;;;;36.63;27.40;;;5.40;99.90;;;;;;4995885;28;20420;-59
2022/01/11 06:25:08;;;;;;;38.27;27.10;;;5.40;99.90;;;;;;4996428;28;20169;-58
2022/01/11 06:27:37;;;;;;;35.70;26.80;;;5.40;99.90;;;;;;4996085;28;20487;-59
2022/01/11 06:30:03;;;;;;;32.60;23.43;;;5.40;99.90;;;;;;4995812;28;20419;-54
2022/01/11 06:32:29;;;;;;;30.93;25.00;;;5.40;99.90;;;;;;4995110;28;20438;-57
2022/01/11 06:34:55;;;;;;;37.70;27.40;;;5.40;99.90;;;;;;4996085;28;20416;-59
2022/01/11 06:37:21;;;;;;;35.13;26.33;;;5.40;99.90;;;;;;4995964;28;20243;-59
2022/01/11 06:39:46;;;;;;;32.90;25.23;;;5.40;99.90;;;;;;4996001;28;20412;-59
2022/01/11 06:42:12;;;;;;;35.53;26.63;;;5.40;99.90;;;;;;4995289;28;20189;-59
2022/01/11 06:44:38;;;;;;;36.03;27.30;;;5.40;99.90;;;;;;4995858;28;20204;-58
2022/01/11 06:47:05;;;;;;;37.53;25.70;;;5.40;99.90;;;;;;4995443;28;20212;-54
2022/01/11 06:49:30;;;;;;;33.73;24.53;;;5.40;99.90;;;;;;4995132;28;20423;-59
2022/01/11 06:51:56;;;;;;;37.97;25.87;;;5.20;99.90;;;;;;4995899;28;20436;-58
2022/01/11 06:54:22;;;;;;;33.30;24.10;;;5.30;99.90;;;;;;4995228;28;20678;-58
2022/01/11 06:56:47;;;;;;;31.73;23.20;;;5.40;99.90;;;;;;4995072;28;20356;-58
2022/01/11 06:59:13;;;;;;;30.70;25.07;;;5.40;99.90;;;;;;4994853;28;20495;-57
2022/01/11 07:01:39;;;;;;;37.50;26.13;;;5.40;99.90;;;;;;4995283;28;20624;-56
2022/01/11 07:04:04;;;;;;;32.63;25.10;;;5.40;99.90;;;;;;4995487;28;20280;-57
2022/01/11 07:06:30;;;;;;;36.40;27.80;;;5.40;99.90;;;;;;4990235;28;20201;-56
2022/01/11 07:08:55;;;;;;;36.70;27.10;;;5.40;99.90;;;;;;4984077;28;20181;-58
2022/01/11 07:11:23;;;;;;;43.23;27.33;;;5.20;99.90;;;;;;4975424;28;20185;-58
2022/01/11 07:13:49;;;;;;;39.27;26.83;;;5.20;99.90;;;;;;4975404;28;20197;-55
2022/01/11 07:16:14;;;;;;;34.33;24.90;;;5.20;99.90;;;;;;4975632;28;20495;-56
2022/01/11 07:18:40;;;;;;;34.70;25.10;;;5.30;99.90;;;;;;4975799;28;20181;-57
2022/01/11 07:21:05;;;;;;;39.50;25.23;;;5.30;99.90;;;;;;4975361;28;20252;-58
2022/01/11 07:23:31;;;;;;;34.80;26.57;;;5.40;99.90;;;;;;4975449;28;20193;-59
2022/01/11 07:25:57;;;;;;;33.33;24.90;;;5.40;99.90;;;;;;4975375;28;20534;-59
2022/01/11 07:28:23;;;;;;;35.73;25.80;;;5.50;99.90;;;;;;4975201;28;20192;-59
2022/01/11 07:30:50;;;;;;;34.87;25.50;;;5.50;99.90;;;;;;4975289;28;20716;-54
2022/01/11 07:33:16;;;;;;;33.00;23.97;;;5.50;99.90;;;;;;4964563;28;20448;-57
2022/01/11 07:35:42;;;;;;;34.57;24.70;;;5.50;99.90;;;;;;4993981;28;20407;-58
2022/01/11 07:38:07;;;;;;;42.27;30.13;;;5.40;99.90;;;;;;4994832;28;20200;-58
2022/01/11 07:40:33;;;;;;;35.83;23.90;;;5.40;99.90;;;;;;4994141;28;20172;-57
2022/01/11 07:42:58;;;;;;;31.40;24.33;;;5.30;99.90;;;;;;4994067;28;20255;-57
2022/01/11 07:45:24;;;;;;;34.40;25.63;;;5.40;99.90;;;;;;4994616;28;20199;-58
2022/01/11 07:47:50;;;;;;;32.80;23.27;;;5.40;99.90;;;;;;4994610;28;20183;-58
2022/01/11 07:50:16;;;;;;;39.73;27.47;;;5.50;99.90;;;;;;4994590;28;20168;-59
2022/01/11 07:52:42;;;;;;;36.10;27.50;;;5.40;99.90;;;;;;4993815;28;20181;-58
2022/01/11 07:55:08;;;;;;;41.87;29.00;;;5.30;99.90;;;;;;4993978;28;20949;-59
2022/01/11 07:57:34;;;;;;;37.03;27.73;;;5.20;99.90;;;;;;4993037;28;20444;-59
2022/01/11 08:00:00;;;;;;;37.37;27.73;;;5.30;99.90;;;;;;4994094;28;20408;-58
2022/01/11 08:02:26;;;;;;;37.70;26.57;;;5.20;99.90;;;;;;4993847;28;20210;-59
2022/01/11 08:04:53;;;;;;;33.13;25.37;;;5.30;99.90;;;;;;4993135;28;20175;-58
2022/01/11 08:07:20;;;;;;;38.07;27.90;;;5.30;99.90;;;;;;4994435;28;20458;-57
2022/01/11 08:09:46;;;;;;;34.83;26.50;;;5.40;99.90;;;;;;4993432;28;20416;-59
2022/01/11 08:12:12;;;;;;;35.37;25.43;;;5.60;99.90;;;;;;4994028;28;20523;-60
2022/01/11 08:14:37;;;;;;;38.83;27.30;;;5.60;99.90;;;;;;4994238;28;20185;-58
2022/01/11 08:17:03;;;;;;;31.37;25.50;;;5.70;99.90;;;;;;4993910;28;20196;-59
2022/01/11 08:19:30;;;;;;;32.20;24.43;;;5.70;99.90;;;;;;4992982;28;20255;-59
2022/01/11 08:21:56;;;;;;;32.87;25.10;;;5.70;99.90;;;;;;4994188;28;20553;-59
2022/01/11 08:24:23;;;;;;;33.63;25.10;;;5.60;99.90;;;;;;4993691;28;20457;-59
2022/01/11 08:26:49;;;;;;;35.37;26.73;;;5.50;99.90;;;;;;4993635;28;20742;-59
2022/01/11 08:29:18;;;;;;;35.57;25.60;;;5.20;99.90;;;;;;4994087;28;20493;-58
2022/01/11 08:31:45;;;;;;;30.30;24.97;;;5.00;99.90;;;;;;4993670;28;20515;-57
2022/01/11 08:34:13;;;;;;;29.40;24.20;;;5.10;99.90;;;;;;4993973;28;20447;-59
2022/01/11 08:36:40;;;;;;;33.20;25.33;;;4.80;99.90;;;;;;4993162;28;20446;-53
2022/01/11 08:39:05;;;;;;;33.20;26.43;;;4.70;99.90;;;;;;4993456;28;20412;-58
2022/01/11 08:41:31;;;;;;;38.87;28.60;;;4.80;99.90;;;;;;4993564;28;20543;-59
2022/01/11 08:43:56;;;;;;;33.87;25.50;;;4.80;99.90;;;;;;4993039;28;20173;-58
2022/01/11 08:46:22;;;;;;;29.53;23.57;;;4.90;99.90;;;;;;4993693;28;20601;-59
2022/01/11 08:48:48;;;;;;;33.33;25.13;;;5.10;99.90;;;;;;4994015;28;20219;-57
2022/01/11 08:51:13;;;;;;;33.87;26.53;;;5.20;99.90;;;;;;4992609;28;20188;-59
2022/01/11 08:53:40;;;;;;;34.10;24.40;;;5.10;99.90;;;;;;4993664;28;20200;-59
2022/01/11 08:56:06;;;;;;;29.63;25.70;;;5.20;99.90;;;;;;4975996;28;20171;-59
2022/01/11 08:58:32;;;;;;;32.07;24.20;;;5.30;99.90;;;;;;4993720;28;20440;-59
2022/01/11 09:00:57;;;;;;;35.40;25.17;;;5.40;99.90;;;;;;4993916;28;20200;-59
2022/01/11 09:03:23;;;;;;;29.57;22.67;;;5.50;99.90;;;;;;4993557;28;20502;-52
2022/01/11 09:05:52;;;;;;;33.63;23.67;;;5.50;99.90;;;;;;4992937;28;20168;-59
2022/01/11 09:08:18;;;;;;;27.87;22.37;;;5.50;99.90;;;;;;4993557;28;20246;-59
2022/01/11 09:10:43;;;;;;;29.43;21.90;;;5.60;99.90;;;;;;4993940;28;20786;-53
2022/01/11 09:13:09;;;;;;;25.60;21.93;;;5.90;99.90;;;;;;4993514;28;20423;-59
2022/01/11 09:15:35;;;;;;;30.30;23.70;;;6.00;99.90;;;;;;4993826;28;20180;-59
2022/01/11 09:18:01;;;;;;;27.07;21.13;;;6.00;99.90;;;;;;4993361;28;20201;-58
2022/01/11 09:20:27;;;;;;;28.07;22.33;;;6.00;99.90;;;;;;4993361;28;20638;-59
2022/01/11 09:22:54;;;;;;;26.90;23.83;;;5.70;99.90;;;;;;4993950;28;20435;-56
2022/01/11 09:25:21;;;;;;;31.10;24.60;;;5.80;99.90;;;;;;4996413;28;20248;-58
2022/01/11 09:27:47;;;;;;;34.83;24.80;;;5.80;99.90;;;;;;4997444;28;20408;-59
2022/01/11 09:30:14;;;;;;;30.70;22.10;;;5.60;99.90;;;;;;4996975;28;20407;-58
2022/01/11 09:32:41;;;;;;;26.80;22.23;;;5.70;99.90;;;;;;4997028;28;20436;-58
2022/01/11 09:35:10;;;;;;;29.93;21.20;;;5.70;99.90;;;;;;4996964;28;20443;-59
2022/01/11 09:37:36;;;;;;;29.30;21.83;;;5.80;99.90;;;;;;4997032;28;20443;-59
2022/01/11 09:40:04;;;;;;;28.97;21.87;;;5.80;99.90;;;;;;4996980;28;20408;-58
2022/01/11 09:42:30;;;;;;;27.60;21.37;;;5.80;99.90;;;;;;4996652;28;20987;-58
2022/01/11 09:44:58;;;;;;;37.33;23.13;;;5.60;99.90;;;;;;4997157;28;20462;-57
2022/01/11 09:47:24;;;;;;;28.13;22.20;;;5.40;99.90;;;;;;4996621;28;20264;-58
2022/01/11 09:49:49;;;;;;;27.67;22.17;;;5.40;99.90;;;;;;4995696;28;20503;-57
2022/01/11 09:52:15;;;;;;;27.10;21.50;;;5.60;99.90;;;;;;4996623;28;20199;-59
2022/01/11 09:54:45;;;;;;;31.40;22.47;;;5.70;99.90;;;;;;4996483;28;20211;-59
2022/01/11 09:57:11;;;;;;;26.57;21.37;;;5.30;99.90;;;;;;4995624;28;20246;-58
2022/01/11 09:59:37;;;;;;;29.83;22.43;;;5.40;99.90;;;;;;4991401;28;20425;-55
2022/01/11 10:02:04;;;;;;;27.93;21.87;;;5.50;99.90;;;;;;4983591;28;20269;-56
2022/01/11 10:04:32;;;;;;;27.07;22.03;;;5.30;99.90;;;;;;4979265;28;21078;-57
2022/01/11 10:07:00;;;;;;;25.77;21.10;;;5.30;99.90;;;;;;4996180;28;20498;-59
2022/01/11 10:09:29;;;;;;;27.93;21.77;;;5.70;99.90;;;;;;4996301;28;20407;-58
2022/01/11 10:11:57;;;;;;;25.67;20.30;;;6.00;99.90;;;;;;4996476;28;20938;-57
2022/01/11 10:14:29;;;;;;;28.57;21.50;;;6.00;99.90;;;;;;4996044;28;20420;-59
2022/01/11 10:17:04;;;;;;;26.80;22.30;;;5.90;99.90;;;;;;4996329;28;20440;-58
2022/01/11 10:19:30;;;;;;;27.27;22.10;;;5.90;99.90;;;;;;4995510;28;20424;-58
2022/01/11 10:21:55;;;;;;;27.83;21.30;;;5.90;99.90;;;;;;4995720;28;20433;-58
2022/01/11 10:24:27;;;;;;;27.63;22.13;;;6.20;99.90;;;;;;4995910;28;20439;-58
2022/01/11 10:26:56;;;;;;;27.20;22.17;;;6.20;99.90;;;;;;4995107;28;20282;-54
2022/01/11 10:29:31;;;;;;;30.17;21.97;;;6.20;99.90;;;;;;4996117;28;20416;-59
2022/01/11 10:31:59;;;;;;;26.77;21.83;;;6.50;99.90;;;;;;4996076;28;20439;-56
2022/01/11 10:34:33;;;;;;;27.40;21.83;;;6.60;99.90;;;;;;4995266;28;20423;-59
2022/01/11 10:37:02;;;;;;;27.17;20.50;;;6.80;99.90;;;;;;4994845;28;20457;-59
2022/01/11 10:39:32;;;;;;;28.40;21.97;;;6.60;99.90;;;;;;4995795;28;20969;-57
2022/01/11 10:42:00;;;;;;;26.57;19.50;;;6.70;99.90;;;;;;4995187;28;20980;-58
2022/01/11 10:44:47;;;;;;;35.00;21.83;;;6.70;99.90;;;;;;4995643;28;20917;-58
2022/01/11 10:47:22;;;;;;;28.20;20.20;;;7.00;99.90;;;;;;4995170;28;20871;-60
2022/01/11 10:49:51;;;;;;;23.43;19.57;;;6.60;99.90;;;;;;4995885;28;20417;-60
2022/01/11 10:52:19;;;;;;;24.87;19.17;;;6.40;99.90;;;;;;4995540;28;20433;-57
2022/01/11 10:54:45;;;;;;;26.37;20.07;;;6.50;99.90;;;;;;4994837;28;20487;-55
2022/01/11 10:57:15;;;;;;;26.83;21.10;;;6.80;99.90;;;;;;4995447;28;20445;-59
2022/01/11 10:59:41;;;;;;;26.97;21.13;;;7.10;99.90;;;;;;4994751;28;20832;-59
2022/01/11 11:02:12;;;;;;;23.00;19.60;;;7.10;99.90;;;;;;4999943;23;20494;-62
2022/01/11 11:04:38;;;;;;;26.43;19.57;;;7.20;99.90;;;;;;4994086;28;20205;-61
2022/01/11 11:07:15;;;;;;;27.80;19.87;;;7.00;99.90;;;;;;4994785;28;20403;-61
2022/01/11 11:09:50;;;;;;;23.37;18.37;;;7.20;99.90;;;;;;4994102;28;20427;-59
2022/01/11 11:12:26;;;;;;;29.00;20.03;;;7.40;99.90;;;;;;4992918;28;20429;-59
2022/01/11 11:14:56;;;;;;;25.57;19.30;;;7.60;99.90;;;;;;4985106;28;20407;-59
2022/01/11 11:17:34;;;;;;;23.53;17.40;;;7.70;99.90;;;;;;4994719;28;20441;-58
2022/01/11 11:20:08;;;;;;;18.47;15.30;;;7.50;99.90;;;;;;4993707;28;20448;-60
2022/01/11 11:22:34;;;;;;;21.17;17.33;;;7.70;99.90;;;;;;4994782;28;20430;-61
2022/01/11 11:25:02;;;;;;;18.47;16.30;;;7.80;99.90;;;;;;4994841;28;20981;-60
2022/01/11 11:27:30;;;;;;;19.73;15.33;;;7.90;99.90;;;;;;4977183;28;20176;-61
2022/01/11 11:29:57;;;;;;;18.73;16.47;;;8.00;99.90;;;;;;4994580;28;20478;-61
2022/01/11 11:32:23;;;;;;;17.30;14.90;;;7.90;99.90;;;;;;4994619;28;20432;-60
2022/01/11 11:34:49;;;;;;;19.40;15.40;;;8.30;99.90;;;;;;4975351;28;20422;-60
2022/01/11 11:37:37;;;;;;;24.50;16.03;;;8.40;99.90;;;;;;4975613;28;20646;-61
2022/01/11 11:40:12;;;;;;;19.67;16.30;;;7.80;99.90;;;;;;4975417;28;20879;-60
2022/01/11 11:42:39;;;;;;;18.87;14.93;;;7.90;99.90;;;;;;4957577;28;20795;-61
2022/01/11 11:45:22;;;;;;;20.60;15.97;;;7.30;99.90;;;;;;4975136;28;20407;-60
2022/01/11 11:47:48;;;;;;;23.80;18.80;;;7.00;99.90;;;;;;4974789;28;20399;-60
2022/01/11 11:50:17;;;;;;;24.50;17.90;;;6.80;99.90;;;;;;4980427;28;20412;-61
2022/01/11 11:52:47;;;;;;;23.67;17.03;;;6.70;99.90;;;;;;4994374;28;20199;-61
2022/01/11 11:55:24;;;;;;;25.67;17.67;;;6.80;99.90;;;;;;4994935;28;20791;-62
2022/01/11 11:57:55;;;;;;;22.90;17.00;;;7.00;99.90;;;;;;4993606;28;20813;-59
2022/01/11 12:00:22;;;;;;;18.10;15.77;;;6.60;99.90;;;;;;4994544;28;20400;-61
2022/01/11 12:02:51;;;;;;;19.37;15.90;;;7.00;99.90;;;;;;4993886;28;20836;-60
2022/01/11 12:05:34;;;;;;;15.90;12.40;;;7.10;99.90;;;;;;4993098;28;20439;-61
2022/01/11 12:08:32;;;;;;;15.87;10.53;;;7.20;99.90;;;;;;4994069;28;20748;-61
2022/01/11 12:11:02;;;;;;;10.90;9.53;;;7.00;99.90;;;;;;4993925;28;20466;-62
2022/01/11 12:13:55;;;;;;;12.03;8.33;;;6.90;99.90;;;;;;4994233;28;20802;-61
2022/01/11 12:16:23;;;;;;;10.80;8.00;;;7.00;99.90;;;;;;4994260;28;20734;-60
2022/01/11 12:18:57;;;;;;;9.37;7.50;;;7.10;99.90;;;;;;4993539;28;20468;-61
2022/01/11 12:21:24;;;;;;;11.10;7.87;;;7.20;99.90;;;;;;4992720;28;20373;-60
2022/01/11 12:23:55;;;;;;;8.77;7.30;;;7.40;99.90;;;;;;4993777;28;20481;-60
2022/01/11 12:26:34;;;;;;;7.13;5.33;;;7.30;99.90;;;;;;4966745;28;20449;-59
2022/01/11 12:29:03;;;;;;;6.90;5.73;;;7.30;99.90;;;;;;4955557;29;20386;-59
2022/01/11 12:31:52;;;;;;;10.73;7.20;;;7.40;99.90;;;;;;4939266;28;20994;-60
2022/01/11 12:34:18;;;;;;;6.70;5.97;;;7.30;99.90;;;;;;4929127;29;20801;-60
2022/01/11 12:36:59;;;;;;;8.10;7.30;;;7.30;99.90;;;;;;4959566;29;20446;-59
2022/01/11 12:39:27;;;;;;;5.93;5.33;;;7.30;99.90;;;;;;4959454;29;20400;-58
2022/01/11 12:41:54;;;;;;;9.10;6.13;;;7.20;99.90;;;;;;4955413;28;20438;-61